Time;durP1;ratioP1;P1;durP2;ratioP2;P2;SDS_P1;SDS_P2;PMS_P1;PMS_P2;Temp;Humidity;BMP_temperature;BMP_pressure;BME280_temperature;BME280_humidity;BME280_pressure;Samples;Min_cycle;Max_cycle;Signal;HPM_P1;HPM_P2
2021/05/27 00:00:36;;;;;;;12.25;7.00;;;10.20;99.90;;;;;;5029441;28;20513;-65
2021/05/27 00:03:03;;;;;;;11.48;8.25;;;10.20;99.90;;;;;;5029329;28;20030;-65
2021/05/27 00:05:30;;;;;;;16.92;8.68;;;10.20;99.90;;;;;;5014054;28;20502;-65
2021/05/27 00:07:56;;;;;;;13.57;9.48;;;10.10;99.90;;;;;;5013772;28;20029;-64
2021/05/27 00:10:27;;;;;;;11.65;8.07;;;10.10;99.90;;;;;;5029236;28;20371;-65
2021/05/27 00:12:53;;;;;;;8.63;4.75;;;10.20;99.90;;;;;;5013692;28;20064;-64
2021/05/27 00:15:24;;;;;;;6.22;2.10;;;10.20;99.90;;;;;;5029138;28;20040;-64
2021/05/27 00:17:50;;;;;;;9.20;2.17;;;10.20;99.90;;;;;;5028890;28;20375;-64
2021/05/27 00:20:16;;;;;;;7.50;2.60;;;10.10;99.90;;;;;;5014057;28;20072;-64
2021/05/27 00:22:43;;;;;;;5.90;2.03;;;10.00;99.90;;;;;;5013664;28;20037;-65
2021/05/27 00:25:11;;;;;;;7.72;2.58;;;10.00;99.90;;;;;;5028661;28;20470;-65
2021/05/27 00:27:36;;;;;;;5.45;2.45;;;10.00;99.90;;;;;;5028595;28;20128;-65
2021/05/27 00:30:05;;;;;;;6.57;3.00;;;9.90;99.90;;;;;;5013512;28;20121;-65
2021/05/27 00:32:32;;;;;;;7.88;2.55;;;9.90;99.90;;;;;;5028509;28;20057;-65
2021/05/27 00:34:58;;;;;;;3.40;2.20;;;9.80;99.90;;;;;;5013528;28;20109;-65
2021/05/27 00:37:24;;;;;;;3.90;2.10;;;9.90;99.90;;;;;;5013408;28;20416;-65
2021/05/27 00:39:50;;;;;;;4.63;2.67;;;9.80;99.90;;;;;;5013495;28;20034;-65
2021/05/27 00:42:16;;;;;;;5.95;2.72;;;9.80;99.90;;;;;;5013262;28;20049;-65
2021/05/27 00:44:42;;;;;;;10.57;2.55;;;9.80;99.90;;;;;;5013357;28;20549;-65
2021/05/27 00:47:10;;;;;;;5.75;2.75;;;9.80;99.90;;;;;;5028465;28;20030;-65
2021/05/27 00:49:37;;;;;;;6.32;2.95;;;9.90;99.90;;;;;;5028642;28;20038;-65
2021/05/27 00:52:04;;;;;;;5.13;2.80;;;9.90;99.90;;;;;;5028219;28;20112;-66
2021/05/27 00:54:29;;;;;;;5.25;2.80;;;9.90;99.90;;;;;;5013173;28;20557;-65
2021/05/27 00:56:56;;;;;;;5.15;2.58;;;9.90;99.90;;;;;;5013211;28;20108;-65
2021/05/27 00:59:22;;;;;;;4.47;2.88;;;9.80;99.90;;;;;;5012992;28;20474;-65
2021/05/27 01:01:50;;;;;;;6.50;3.03;;;9.80;99.90;;;;;;5028201;28;20037;-65
2021/05/27 01:04:18;;;;;;;5.65;3.38;;;9.90;99.90;;;;;;5013311;28;20034;-65
2021/05/27 01:06:44;;;;;;;5.38;2.90;;;9.90;99.90;;;;;;5012957;28;20087;-65
2021/05/27 01:09:10;;;;;;;5.30;2.85;;;9.80;99.90;;;;;;5027969;28;20118;-65
2021/05/27 01:11:36;;;;;;;4.95;2.78;;;9.80;99.90;;;;;;5013296;28;20100;-65
2021/05/27 01:17:02;;;;;;;7.55;3.13;;;9.80;99.90;;;;;;5012585;28;20099;-65
2021/05/27 01:19:27;;;;;;;5.40;2.78;;;9.80;99.90;;;;;;5012918;28;20030;-65
2021/05/27 01:21:53;;;;;;;5.10;2.60;;;9.80;99.90;;;;;;5012605;28;20375;-65
2021/05/27 01:24:19;;;;;;;6.03;2.92;;;9.70;99.90;;;;;;5028154;28;20036;-65
2021/05/27 01:26:45;;;;;;;6.35;3.53;;;9.50;99.90;;;;;;5027686;28;20493;-65
2021/05/27 01:29:11;;;;;;;10.35;4.13;;;9.20;99.90;;;;;;5012228;28;20117;-65
2021/05/27 01:31:37;;;;;;;7.30;3.40;;;9.20;99.90;;;;;;5027766;28;20103;-65
2021/05/27 01:34:07;;;;;;;5.68;3.03;;;9.00;99.90;;;;;;5012371;28;20037;-65
2021/05/27 01:36:33;;;;;;;9.48;3.85;;;8.80;99.90;;;;;;5012120;28;20030;-65
2021/05/27 01:38:59;;;;;;;7.40;3.70;;;8.70;99.90;;;;;;5027541;28;20033;-65
2021/05/27 01:41:25;;;;;;;6.75;2.83;;;8.70;99.90;;;;;;5027601;28;20401;-64
2021/05/27 01:43:51;;;;;;;4.88;2.97;;;8.70;99.90;;;;;;5012668;28;20037;-65
2021/05/27 01:46:17;;;;;;;6.55;3.25;;;8.60;99.90;;;;;;5012609;28;20065;-64
2021/05/27 01:48:42;;;;;;;8.00;3.63;;;8.50;99.90;;;;;;5027657;28;20042;-64
2021/05/27 01:51:08;;;;;;;6.22;3.20;;;8.40;99.90;;;;;;5012203;28;20525;-64
2021/05/27 01:53:34;;;;;;;8.70;4.32;;;8.40;99.90;;;;;;5012641;28;20117;-64
2021/05/27 01:56:00;;;;;;;6.03;3.35;;;8.40;99.90;;;;;;5027413;28;20372;-65
2021/05/27 01:58:26;;;;;;;8.57;3.67;;;8.40;99.90;;;;;;5012312;28;20041;-64
2021/05/27 02:00:51;;;;;;;6.70;3.50;;;8.40;99.90;;;;;;5012618;28;20031;-65
2021/05/27 02:03:17;;;;;;;9.18;3.67;;;8.40;99.90;;;;;;5012098;28;20057;-64
2021/05/27 02:05:43;;;;;;;6.05;3.38;;;8.30;99.90;;;;;;5012399;28;20037;-64
2021/05/27 02:08:10;;;;;;;6.55;3.67;;;8.30;99.90;;;;;;5012052;28;20041;-64
2021/05/27 02:10:36;;;;;;;9.60;3.88;;;8.30;99.90;;;;;;5012375;28;20095;-64
2021/05/27 02:13:01;;;;;;;7.70;3.58;;;8.30;99.90;;;;;;5012247;28;20037;-64
2021/05/27 02:15:28;;;;;;;7.30;3.45;;;8.30;99.90;;;;;;5012314;28;20038;-64
2021/05/27 02:17:53;;;;;;;5.70;3.55;;;8.20;99.90;;;;;;5012377;28;20069;-64
2021/05/27 02:20:19;;;;;;;6.05;3.25;;;8.20;99.90;;;;;;5012066;28;20508;-64
2021/05/27 02:22:45;;;;;;;6.18;3.30;;;8.20;99.90;;;;;;5012332;28;20161;-64
2021/05/27 02:25:12;;;;;;;9.48;3.55;;;8.20;99.90;;;;;;5012350;28;20057;-64
2021/05/27 02:27:38;;;;;;;5.50;3.50;;;8.10;99.90;;;;;;5027267;28;20354;-64
2021/05/27 02:30:05;;;;;;;9.02;4.35;;;8.10;99.90;;;;;;5011944;28;20482;-64
2021/05/27 02:32:31;;;;;;;6.43;4.25;;;8.00;99.90;;;;;;5011980;28;20026;-64
2021/05/27 02:34:57;;;;;;;6.82;4.07;;;8.00;99.90;;;;;;5012160;28;20037;-64
2021/05/27 02:37:23;;;;;;;7.95;3.58;;;8.00;99.90;;;;;;5011709;28;20029;-64
2021/05/27 02:39:49;;;;;;;7.35;4.10;;;7.90;99.90;;;;;;5011925;28;20386;-64
2021/05/27 02:42:15;;;;;;;5.18;4.05;;;7.90;99.90;;;;;;5012059;28;20042;-64
2021/05/27 02:44:40;;;;;;;7.30;4.57;;;7.90;99.90;;;;;;5011865;28;20038;-64
2021/05/27 02:47:06;;;;;;;6.82;4.65;;;7.80;99.90;;;;;;5027257;28;20092;-64
2021/05/27 02:49:32;;;;;;;9.43;4.20;;;7.80;99.90;;;;;;5030680;28;20117;-64
2021/05/27 02:51:58;;;;;;;11.82;4.88;;;7.70;99.90;;;;;;5030876;28;20067;-64
2021/05/27 02:54:25;;;;;;;10.73;6.03;;;7.70;99.90;;;;;;5015598;28;20038;-64
2021/05/27 02:56:51;;;;;;;11.02;5.47;;;7.70;99.90;;;;;;5015606;28;20037;-64
2021/05/27 02:59:17;;;;;;;10.27;5.60;;;7.80;99.90;;;;;;5015062;28;20116;-65
2021/05/27 03:01:42;;;;;;;7.47;5.15;;;7.90;99.90;;;;;;5015360;28;20109;-65
2021/05/27 03:04:08;;;;;;;8.13;5.88;;;7.90;99.90;;;;;;5014987;28;20481;-64
2021/05/27 03:06:34;;;;;;;8.63;5.13;;;7.80;99.90;;;;;;5015409;28;20057;-65
2021/05/27 03:09:00;;;;;;;9.02;5.22;;;7.90;99.90;;;;;;5030136;28;20088;-64
2021/05/27 03:11:25;;;;;;;10.10;6.00;;;7.90;99.90;;;;;;5014998;28;20041;-64
2021/05/27 03:13:51;;;;;;;11.80;5.63;;;7.90;99.90;;;;;;5015018;28;20038;-64
2021/05/27 03:16:17;;;;;;;8.82;5.40;;;7.90;99.90;;;;;;5015098;28;20034;-64
2021/05/27 03:18:43;;;;;;;8.43;5.50;;;7.90;99.90;;;;;;5030318;28;20080;-65
2021/05/27 03:21:09;;;;;;;8.35;5.93;;;8.00;99.90;;;;;;5014695;28;20066;-65
2021/05/27 03:23:34;;;;;;;9.35;5.25;;;8.00;99.90;;;;;;5029959;28;20030;-65
2021/05/27 03:26:01;;;;;;;9.20;6.18;;;8.00;99.90;;;;;;5015011;28;20034;-64
2021/05/27 03:28:27;;;;;;;8.02;5.50;;;8.00;99.90;;;;;;5029667;28;20053;-65
2021/05/27 03:30:53;;;;;;;10.60;5.65;;;8.00;99.90;;;;;;5010963;28;20388;-68
2021/05/27 03:33:19;;;;;;;8.73;5.43;;;8.00;99.90;;;;;;5009447;28;20041;-71
2021/05/27 03:35:44;;;;;;;15.43;6.13;;;8.00;99.90;;;;;;5014595;28;20041;-68
2021/05/27 03:38:10;;;;;;;9.13;5.97;;;8.00;99.90;;;;;;5014534;28;20049;-68
2021/05/27 03:40:36;;;;;;;9.55;5.72;;;8.10;99.90;;;;;;5015184;28;20065;-68
2021/05/27 03:43:02;;;;;;;9.55;5.97;;;8.10;99.90;;;;;;5015523;28;20470;-68
2021/05/27 03:45:32;;;;;;;6.97;5.32;;;8.20;99.90;;;;;;5013204;28;20060;-68
2021/05/27 03:47:59;;;;;;;16.38;6.63;;;8.30;99.90;;;;;;5012866;28;20030;-67
2021/05/27 03:50:27;;;;;;;11.63;5.40;;;8.40;99.90;;;;;;5013098;28;20033;-68
2021/05/27 03:52:54;;;;;;;6.63;5.28;;;8.40;99.90;;;;;;5014395;28;20048;-65
2021/05/27 03:55:21;;;;;;;9.38;5.72;;;8.30;99.90;;;;;;5014341;28;20038;-67
2021/05/27 03:57:48;;;;;;;9.35;5.35;;;8.30;99.90;;;;;;5012921;28;20040;-67
2021/05/27 04:03:04;;;;;;;8.32;5.68;;;8.30;99.90;;;;;;5025698;28;20033;-67
2021/05/27 04:08:16;;;;;;;12.65;5.88;;;8.30;99.90;;;;;;5032397;28;20099;-67
2021/05/27 04:10:42;;;;;;;9.63;6.03;;;8.40;99.90;;;;;;5032297;28;20068;-68
2021/05/27 04:13:08;;;;;;;10.02;6.07;;;8.40;99.90;;;;;;5033395;28;20500;-68
2021/05/27 04:15:36;;;;;;;9.52;6.65;;;8.40;99.90;;;;;;5032394;28;20065;-68
2021/05/27 04:18:14;;;;;;;12.73;7.03;;;8.30;99.90;;;;;;5032409;28;20033;-67
2021/05/27 04:20:55;;;;;;;10.30;5.88;;;8.40;99.90;;;;;;5032807;28;20030;-69
2021/05/27 04:23:39;;;;;;;9.50;4.93;;;8.40;99.90;;;;;;5048613;28;20385;-68
2021/05/27 04:26:10;;;;;;;10.00;5.60;;;8.50;99.90;;;;;;5030730;28;20553;-68
2021/05/27 04:28:37;;;;;;;7.13;4.90;;;8.60;99.90;;;;;;4999282;28;20052;-67
2021/05/27 04:31:11;;;;;;;8.20;5.85;;;8.60;99.90;;;;;;5031904;28;20092;-67
2021/05/27 04:33:54;;;;;;;8.38;5.72;;;8.70;99.90;;;;;;5015627;28;20068;-67
2021/05/27 04:36:21;;;;;;;9.45;6.00;;;8.70;99.90;;;;;;5011936;28;20030;-67
2021/05/27 04:38:48;;;;;;;9.65;4.93;;;8.90;99.90;;;;;;5013258;28;20030;-67
2021/05/27 04:41:16;;;;;;;11.70;4.97;;;8.90;99.90;;;;;;5012174;28;20088;-66
2021/05/27 04:43:42;;;;;;;12.52;6.35;;;8.90;99.90;;;;;;5012132;28;20030;-67
2021/05/27 04:46:09;;;;;;;8.15;5.32;;;8.90;99.90;;;;;;5010499;28;20049;-67
2021/05/27 04:48:35;;;;;;;10.10;5.35;;;8.80;99.90;;;;;;5011873;28;20479;-69
2021/05/27 04:51:02;;;;;;;9.82;5.35;;;8.70;99.90;;;;;;5013308;28;20092;-65
2021/05/27 04:53:28;;;;;;;10.05;4.93;;;8.80;99.90;;;;;;5013210;28;20022;-66
2021/05/27 04:55:55;;;;;;;11.00;4.93;;;8.90;99.90;;;;;;5013285;28;20111;-67
2021/05/27 04:58:22;;;;;;;9.40;4.82;;;8.90;99.90;;;;;;5011825;28;20037;-67
2021/05/27 05:00:48;;;;;;;8.15;4.63;;;9.10;99.90;;;;;;5011756;28;20034;-68
2021/05/27 05:03:15;;;;;;;9.38;4.70;;;9.20;99.90;;;;;;5027216;28;20029;-68
2021/05/27 05:05:40;;;;;;;9.52;4.60;;;9.30;99.90;;;;;;5032841;28;20037;-68
2021/05/27 05:08:07;;;;;;;9.45;5.03;;;9.30;99.90;;;;;;5032667;28;20082;-68
2021/05/27 05:10:34;;;;;;;11.00;5.85;;;9.40;99.90;;;;;;5030536;28;20106;-68
2021/05/27 05:12:59;;;;;;;10.40;5.45;;;9.30;99.90;;;;;;5031208;28;20037;-67
2021/05/27 05:15:33;;;;;;;11.48;4.63;;;9.30;99.90;;;;;;5031075;28;20389;-68
2021/05/27 05:18:01;;;;;;;8.05;4.78;;;9.30;99.90;;;;;;5031270;28;20041;-68
2021/05/27 05:20:33;;;;;;;9.80;5.60;;;9.30;99.90;;;;;;5030949;28;20029;-68
2021/05/27 05:23:00;;;;;;;5.68;4.25;;;9.30;99.90;;;;;;5031236;28;20042;-66
2021/05/27 05:25:27;;;;;;;6.57;4.22;;;9.50;99.90;;;;;;5031260;28;20037;-66
2021/05/27 05:27:54;;;;;;;9.05;3.80;;;9.50;99.90;;;;;;5032182;28;20175;-67
2021/05/27 05:30:23;;;;;;;7.75;4.88;;;9.60;99.90;;;;;;5032067;28;20136;-67
2021/05/27 05:32:49;;;;;;;8.93;4.75;;;9.60;99.90;;;;;;5021950;28;20038;-68
2021/05/27 05:35:17;;;;;;;7.78;4.28;;;9.60;99.90;;;;;;5012396;28;20437;-68
2021/05/27 05:37:44;;;;;;;8.00;4.35;;;9.60;99.90;;;;;;5011104;28;20492;-68
2021/05/27 05:40:13;;;;;;;6.90;3.85;;;9.70;99.90;;;;;;5011347;28;20060;-68
2021/05/27 05:42:39;;;;;;;7.32;4.18;;;9.70;99.90;;;;;;5010920;28;20406;-68
2021/05/27 05:45:09;;;;;;;7.75;4.20;;;9.80;99.90;;;;;;5012536;28;20033;-68
2021/05/27 05:47:35;;;;;;;9.20;4.30;;;9.80;99.90;;;;;;5010913;28;20030;-68
2021/05/27 05:50:03;;;;;;;8.02;3.75;;;9.90;99.90;;;;;;5010833;28;20374;-68
2021/05/27 05:52:30;;;;;;;5.32;3.65;;;9.90;99.90;;;;;;5011994;28;20069;-68
2021/05/27 05:54:56;;;;;;;7.03;4.57;;;10.00;99.90;;;;;;5011285;28;20088;-66
2021/05/27 05:57:21;;;;;;;6.85;4.05;;;10.00;99.90;;;;;;5011963;28;20038;-66
2021/05/27 05:59:48;;;;;;;7.68;3.75;;;10.10;99.90;;;;;;5011956;28;20026;-66
2021/05/27 06:02:13;;;;;;;6.53;3.78;;;10.10;99.90;;;;;;5016906;28;20026;-67
2021/05/27 06:04:39;;;;;;;6.40;3.38;;;10.10;99.90;;;;;;5032136;28;20488;-68
2021/05/27 06:07:05;;;;;;;7.95;2.80;;;10.20;99.90;;;;;;5031800;28;20025;-68
2021/05/27 06:09:31;;;;;;;5.72;2.92;;;10.40;99.90;;;;;;5031614;28;20037;-68
2021/05/27 06:11:56;;;;;;;4.10;2.60;;;10.40;99.90;;;;;;5031911;28;20136;-67
2021/05/27 06:14:23;;;;;;;7.93;3.63;;;10.40;99.90;;;;;;5031663;28;20030;-68
2021/05/27 06:16:48;;;;;;;7.18;3.20;;;10.40;99.90;;;;;;5031699;28;20030;-68
2021/05/27 06:19:15;;;;;;;5.68;3.05;;;10.40;99.90;;;;;;5031559;28;20041;-68
2021/05/27 06:21:41;;;;;;;8.90;3.35;;;10.50;99.90;;;;;;5032985;28;20112;-67
2021/05/27 06:24:08;;;;;;;5.40;2.85;;;10.60;99.90;;;;;;5034614;28;20033;-67
2021/05/27 06:26:36;;;;;;;6.90;3.03;;;10.70;99.90;;;;;;5050914;28;20030;-67
2021/05/27 06:29:02;;;;;;;6.75;2.58;;;10.70;99.90;;;;;;5035164;28;20041;-67
2021/05/27 06:31:28;;;;;;;4.25;2.60;;;10.70;99.90;;;;;;5033905;28;20245;-67
2021/05/27 06:33:54;;;;;;;4.63;2.50;;;10.70;99.90;;;;;;4996238;28;20089;-67
2021/05/27 06:36:20;;;;;;;6.25;2.92;;;10.70;99.90;;;;;;4995730;28;20058;-68
2021/05/27 06:38:46;;;;;;;5.85;2.88;;;10.70;99.90;;;;;;4995784;28;20026;-68
2021/05/27 06:41:11;;;;;;;7.47;2.50;;;10.80;99.90;;;;;;4995976;28;20157;-68
2021/05/27 06:43:37;;;;;;;5.35;2.78;;;10.90;99.90;;;;;;5010828;28;20575;-68
2021/05/27 06:46:03;;;;;;;4.65;2.47;;;10.90;99.90;;;;;;4996099;28;20053;-68
2021/05/27 06:48:29;;;;;;;8.30;3.20;;;10.90;99.90;;;;;;5010807;28;20072;-68
2021/05/27 06:50:55;;;;;;;5.88;2.50;;;11.00;99.90;;;;;;4995871;28;20062;-68
2021/05/27 06:53:20;;;;;;;5.03;2.78;;;11.10;99.90;;;;;;4995499;28;20533;-69
2021/05/27 06:55:47;;;;;;;7.30;2.08;;;11.10;99.90;;;;;;5010894;28;20054;-69
2021/05/27 06:58:15;;;;;;;4.72;2.20;;;11.30;99.90;;;;;;5010706;28;20030;-69
2021/05/27 07:00:42;;;;;;;4.10;2.05;;;11.40;99.90;;;;;;4995538;28;20049;-68
2021/05/27 07:03:09;;;;;;;5.13;1.80;;;11.40;99.90;;;;;;5037422;28;20129;-68
2021/05/27 07:05:35;;;;;;;4.32;1.90;;;11.40;99.90;;;;;;5034769;28;20025;-68
2021/05/27 07:08:03;;;;;;;5.57;1.98;;;11.50;99.90;;;;;;5033431;28;20492;-68
2021/05/27 07:10:30;;;;;;;4.55;2.00;;;11.60;99.90;;;;;;5034558;28;20034;-68
2021/05/27 07:13:01;;;;;;;4.32;2.00;;;11.60;99.90;;;;;;5033582;28;20037;-67
2021/05/27 07:15:27;;;;;;;4.63;1.80;;;11.60;99.90;;;;;;5033271;28;20037;-68
2021/05/27 07:17:54;;;;;;;5.32;2.30;;;11.60;99.90;;;;;;5033458;28;20034;-68
2021/05/27 07:20:25;;;;;;;5.22;1.80;;;11.60;99.90;;;;;;5023596;28;20088;-68
2021/05/27 07:22:52;;;;;;;5.22;2.10;;;11.60;99.90;;;;;;5013708;28;20026;-68
2021/05/27 07:25:20;;;;;;;5.20;1.88;;;11.60;99.90;;;;;;5012424;28;20030;-68
2021/05/27 07:27:49;;;;;;;5.22;2.35;;;11.60;99.90;;;;;;5014535;28;20498;-68
2021/05/27 07:30:17;;;;;;;4.28;1.90;;;11.70;99.90;;;;;;5017210;28;20060;-69
2021/05/27 07:32:44;;;;;;;3.65;1.70;;;11.60;99.90;;;;;;5012818;28;20030;-68
2021/05/27 07:35:10;;;;;;;7.80;1.95;;;11.70;99.90;;;;;;5014037;28;20069;-68
2021/05/27 07:37:36;;;;;;;5.22;2.17;;;11.80;99.90;;;;;;5029425;28;20053;-68
2021/05/27 07:40:04;;;;;;;4.75;2.10;;;11.80;99.90;;;;;;5013124;28;20701;-68
2021/05/27 07:42:29;;;;;;;7.43;2.05;;;11.80;99.90;;;;;;5013934;28;20034;-67
2021/05/27 07:44:55;;;;;;;7.43;2.20;;;11.80;99.90;;;;;;5014204;28;20033;-68
2021/05/27 07:47:21;;;;;;;5.18;1.90;;;11.80;99.90;;;;;;5029522;28;20030;-68
2021/05/27 07:49:49;;;;;;;7.03;2.30;;;11.80;99.90;;;;;;5012687;28;20107;-68
2021/05/27 07:52:15;;;;;;;15.82;2.65;;;11.80;99.90;;;;;;5012714;28;20034;-68
2021/05/27 07:54:40;;;;;;;5.15;2.25;;;11.70;99.90;;;;;;5029065;28;20034;-69
2021/05/27 07:57:06;;;;;;;5.95;1.80;;;11.70;99.90;;;;;;5013943;28;20146;-68
2021/05/27 07:59:32;;;;;;;4.13;2.05;;;11.80;99.90;;;;;;5013559;28;20042;-69
2021/05/27 08:01:58;;;;;;;7.15;2.15;;;11.80;99.90;;;;;;5025131;28;20105;-68
2021/05/27 08:04:23;;;;;;;6.05;2.05;;;11.60;99.90;;;;;;4994333;28;20544;-68
2021/05/27 08:06:49;;;;;;;6.05;2.63;;;11.70;99.90;;;;;;4994240;28;20058;-68
2021/05/27 08:09:15;;;;;;;7.90;2.13;;;11.80;99.90;;;;;;4994272;28;20027;-68
2021/05/27 08:11:47;;;;;;;6.07;1.85;;;11.80;99.90;;;;;;4993986;28;20113;-68
2021/05/27 08:14:13;;;;;;;5.63;1.98;;;11.80;99.90;;;;;;4993990;28;20026;-68
2021/05/27 08:16:39;;;;;;;6.97;1.73;;;11.70;99.90;;;;;;5008965;28;20395;-68
2021/05/27 08:19:05;;;;;;;4.70;2.08;;;11.80;99.90;;;;;;4993637;28;20030;-68
2021/05/27 08:21:31;;;;;;;4.57;2.03;;;11.80;99.90;;;;;;4993896;28;20034;-68
2021/05/27 08:23:58;;;;;;;3.40;1.95;;;11.80;99.90;;;;;;4993901;28;20490;-68
2021/05/27 08:26:24;;;;;;;4.50;2.17;;;11.80;99.90;;;;;;5008881;28;20049;-68
2021/05/27 08:28:52;;;;;;;6.05;2.28;;;11.80;99.90;;;;;;4993451;28;20057;-68
2021/05/27 08:31:19;;;;;;;6.32;2.63;;;11.80;99.90;;;;;;5008514;28;20193;-68
2021/05/27 08:33:47;;;;;;;8.00;2.80;;;11.80;99.90;;;;;;5030808;28;20035;-68
2021/05/27 08:36:13;;;;;;;6.00;3.10;;;12.10;99.90;;;;;;5031705;28;20025;-69
2021/05/27 08:38:39;;;;;;;7.90;3.17;;;12.00;99.90;;;;;;5032809;28;20037;-68
2021/05/27 08:41:05;;;;;;;9.55;2.80;;;12.00;99.90;;;;;;5033086;28;20112;-68
2021/05/27 08:43:32;;;;;;;6.47;2.92;;;12.00;99.90;;;;;;5032708;28;20087;-68
2021/05/27 08:46:02;;;;;;;5.40;2.47;;;12.10;99.90;;;;;;5032149;28;20373;-69
2021/05/27 08:48:29;;;;;;;5.78;2.65;;;12.20;99.90;;;;;;5032473;28;20441;-69
2021/05/27 08:50:55;;;;;;;11.73;3.05;;;12.20;99.90;;;;;;5031506;28;20039;-68
2021/05/27 08:53:20;;;;;;;7.15;2.40;;;12.20;99.90;;;;;;5031469;28;20448;-69
2021/05/27 08:55:48;;;;;;;4.63;2.28;;;12.30;99.90;;;;;;5032351;28;20061;-69
2021/05/27 08:58:16;;;;;;;6.07;1.98;;;12.30;99.90;;;;;;5032631;28;20405;-68
2021/05/27 09:00:41;;;;;;;4.78;2.10;;;12.30;99.90;;;;;;5031565;28;20033;-68
2021/05/27 09:03:14;;;;;;;8.32;2.22;;;12.40;99.90;;;;;;5018831;28;20037;-68
2021/05/27 09:05:41;;;;;;;5.13;2.00;;;12.40;99.90;;;;;;5027341;28;20037;-68
2021/05/27 09:08:09;;;;;;;8.50;2.40;;;12.40;99.90;;;;;;5027736;28;20058;-67
2021/05/27 09:10:48;;;;;;;6.65;2.33;;;12.50;99.90;;;;;;5027827;28;20040;-68
2021/05/27 09:13:17;;;;;;;3.45;2.13;;;12.70;99.90;;;;;;5012715;28;20030;-68
2021/05/27 09:15:45;;;;;;;4.63;1.98;;;12.90;99.90;;;;;;5012485;28;20065;-69
2021/05/27 09:18:11;;;;;;;4.80;1.83;;;13.00;99.90;;;;;;5027809;28;20042;-68
2021/05/27 09:20:38;;;;;;;4.55;2.10;;;13.20;99.90;;;;;;5012637;28;20061;-68
2021/05/27 09:23:20;;;;;;;3.88;2.05;;;13.30;99.90;;;;;;5012482;28;20065;-68
2021/05/27 09:25:50;;;;;;;4.38;1.90;;;13.30;99.90;;;;;;5011060;28;20038;-68
2021/05/27 09:28:23;;;;;;;6.00;2.00;;;13.30;99.90;;;;;;5027057;28;20099;-68
2021/05/27 09:30:54;;;;;;;4.82;2.67;;;13.30;99.90;;;;;;5027029;28;20049;-68
2021/05/27 09:33:44;;;;;;;5.70;2.03;;;13.40;99.90;;;;;;5027597;28;20631;-68
2021/05/27 09:36:16;;;;;;;4.63;2.28;;;13.30;99.90;;;;;;5023237;28;20069;-69
2021/05/27 09:38:46;;;;;;;3.00;2.22;;;13.40;99.90;;;;;;5010972;28;20041;-69
2021/05/27 09:41:23;;;;;;;5.50;2.63;;;13.60;99.90;;;;;;5012345;28;20459;-69
2021/05/27 09:43:54;;;;;;;5.13;2.30;;;13.80;99.90;;;;;;5012034;28;20498;-69
2021/05/27 09:46:22;;;;;;;;;;;14.10;99.90;;;;;;5012743;28;20048;-69
2021/05/27 09:49:04;;;;;;;8.55;2.22;;;14.10;99.90;;;;;;5012058;28;19913;-69
2021/05/27 09:51:30;;;;;;;6.22;2.50;;;14.00;99.90;;;;;;5011305;28;20042;-69
2021/05/27 09:53:56;;;;;;;4.28;2.38;;;13.80;99.90;;;;;;5012478;28;20084;-68
2021/05/27 09:56:40;;;;;;;5.43;2.80;;;13.60;99.90;;;;;;5011400;28;20038;-69
2021/05/27 09:59:08;;;;;;;5.63;2.00;;;13.50;99.90;;;;;;5016516;28;20505;-69
2021/05/27 10:01:34;;;;;;;3.22;2.13;;;13.50;99.90;;;;;;4999441;28;20398;-69
2021/05/27 10:04:15;;;;;;;6.32;2.60;;;13.50;99.90;;;;;;5035770;28;20068;-69
2021/05/27 10:06:42;;;;;;;3.38;1.95;;;13.40;99.90;;;;;;5034525;28;20083;-67
2021/05/27 10:09:10;;;;;;;6.50;2.30;;;13.50;99.90;;;;;;5034485;28;20037;-67
2021/05/27 10:11:40;;;;;;;7.45;2.45;;;13.70;99.90;;;;;;5035308;28;20555;-67
2021/05/27 10:14:10;;;;;;;3.72;2.20;;;13.80;99.90;;;;;;5035991;28;20469;-68
2021/05/27 10:16:40;;;;;;;4.47;1.70;;;14.10;99.90;;;;;;5035866;28;20486;-69
2021/05/27 10:19:07;;;;;;;5.95;1.98;;;14.20;99.90;;;;;;5034417;28;20384;-69
2021/05/27 10:21:33;;;;;;;5.40;1.73;;;14.30;99.90;;;;;;5035364;28;20025;-69
2021/05/27 10:24:03;;;;;;;2.88;1.80;;;14.40;99.90;;;;;;5034361;28;20036;-68
2021/05/27 10:26:29;;;;;;;2.42;1.45;;;14.70;99.90;;;;;;5035381;28;20040;-68
2021/05/27 10:28:55;;;;;;;3.53;1.52;;;14.80;99.90;;;;;;5035306;28;20049;-68
2021/05/27 10:31:24;;;;;;;3.22;1.88;;;14.90;99.90;;;;;;5035288;28;20389;-73
2021/05/27 10:33:52;;;;;;;4.57;1.90;;;15.00;99.90;;;;;;5014466;28;20389;-75
2021/05/27 10:36:18;;;;;;;5.07;2.08;;;15.00;99.90;;;;;;5014170;28;20030;-74
2021/05/27 10:38:48;;;;;;;5.07;2.30;;;14.90;99.90;;;;;;5015348;28;20389;-63
2021/05/27 10:41:27;;;;;;;5.13;1.85;;;14.90;99.90;;;;;;5015583;28;20099;-67
2021/05/27 10:44:02;;;;;;;4.40;2.15;;;14.90;99.90;;;;;;5015479;28;20540;-66
2021/05/27 10:46:58;;;;;;;4.88;2.53;;;14.90;99.90;;;;;;5015379;28;20463;-66
2021/05/27 10:49:40;;;;;;;2.83;1.75;;;14.90;99.90;;;;;;5001005;28;20159;-66
2021/05/27 10:52:27;;;;;;;4.40;1.77;;;14.90;99.90;;;;;;5015407;28;20511;-66
2021/05/27 10:54:53;;;;;;;3.55;2.30;;;14.90;99.90;;;;;;5014971;28;20080;-65
2021/05/27 10:57:41;;;;;;;4.72;1.42;;;15.00;99.90;;;;;;5015181;28;20493;-66
2021/05/27 11:00:19;;;;;;;4.88;1.50;;;14.90;99.90;;;;;;5015312;28;20046;-66
2021/05/27 11:02:45;;;;;;;3.92;1.73;;;14.80;99.90;;;;;;5025488;28;20034;-66
2021/05/27 11:05:24;;;;;;;3.33;1.70;;;14.80;99.90;;;;;;5033502;28;20401;-66
2021/05/27 11:08:20;;;;;;;7.68;3.60;;;14.90;99.90;;;;;;5033023;28;20120;-66
2021/05/27 11:10:45;;;;;;;2.95;1.65;;;14.90;99.90;;;;;;5034854;28;20086;-66
2021/05/27 11:13:11;;;;;;;3.83;1.50;;;14.90;99.90;;;;;;5034478;28;20427;-65
2021/05/27 11:16:04;;;;;;;2.58;1.60;;;15.00;99.90;;;;;;5034754;28;20033;-66
2021/05/27 11:18:33;;;;;;;3.55;1.77;;;14.90;99.90;;;;;;5034808;28;20080;-66
2021/05/27 11:21:33;;;;;;;2.63;1.70;;;14.90;99.90;;;;;;5034853;28;20025;-66
2021/05/27 11:27:29;;;;;;;4.22;1.70;;;15.40;99.90;;;;;;5033369;28;20044;-66
2021/05/27 11:30:18;;;;;;;3.23;1.43;;;15.40;99.90;;;;;;5034140;28;20033;-66
2021/05/27 11:33:00;;;;;;;3.20;1.40;;;15.70;99.90;;;;;;5023797;28;20030;-66
2021/05/27 11:35:40;;;;;;;2.45;1.45;;;15.70;99.90;;;;;;5013667;28;20069;-66
2021/05/27 11:38:10;;;;;;;2.30;1.48;;;15.80;99.90;;;;;;5013388;28;20527;-66
2021/05/27 11:40:41;;;;;;;4.88;1.38;;;16.20;99.90;;;;;;5014542;28;20041;-66
2021/05/27 11:43:08;;;;;;;2.72;1.38;;;16.40;99.80;;;;;;5014736;28;20037;-67
2021/05/27 11:46:12;;;;;;;3.00;1.30;;;16.40;99.90;;;;;;5016708;28;20043;-66
2021/05/27 11:48:42;;;;;;;2.72;1.38;;;16.40;99.50;;;;;;5027437;28;20045;-66
2021/05/27 11:51:16;;;;;;;2.15;1.00;;;16.30;98.70;;;;;;5049786;28;20104;-66
2021/05/27 11:54:00;;;;;;;6.25;1.55;;;16.40;98.70;;;;;;5034039;28;20034;-67
2021/05/27 11:56:37;;;;;;;1.60;0.93;;;16.20;98.00;;;;;;5033947;28;20041;-67
2021/05/27 11:59:19;;;;;;;3.10;1.67;;;16.10;99.10;;;;;;5034038;28;20040;-67
2021/05/27 12:01:57;;;;;;;2.92;1.15;;;16.00;99.40;;;;;;5031348;28;20481;-67
2021/05/27 12:04:24;;;;;;;4.15;1.23;;;16.10;99.90;;;;;;5013936;28;20517;-67
2021/05/27 12:07:11;;;;;;;2.78;1.40;;;16.10;99.70;;;;;;5013586;28;20045;-67
2021/05/27 12:09:46;;;;;;;1.45;1.00;;;16.00;98.40;;;;;;5012773;28;20092;-67
2021/05/27 12:12:26;;;;;;;3.47;0.85;;;16.30;96.30;;;;;;5012567;28;20122;-67
2021/05/27 12:15:03;;;;;;;3.63;0.80;;;16.30;96.50;;;;;;5013788;28;20116;-66
2021/05/27 12:17:36;;;;;;;2.80;1.10;;;16.50;96.40;;;;;;5013450;28;20038;-66
2021/05/27 12:20:07;;;;;;;1.90;1.20;;;16.50;96.70;;;;;;5013735;28;20033;-67
2021/05/27 12:22:55;;;;;;;1.92;1.05;;;16.60;97.00;;;;;;5013527;28;20026;-67
2021/05/27 12:25:29;;;;;;;1.52;1.02;;;16.50;97.40;;;;;;5013858;28;20041;-64
2021/05/27 12:28:03;;;;;;;2.13;1.00;;;16.50;97.30;;;;;;5012100;28;20057;-68
2021/05/27 12:30:31;;;;;;;1.60;1.10;;;16.40;98.10;;;;;;5013349;28;20045;-68
2021/05/27 12:32:59;;;;;;;5.53;1.30;;;16.50;98.70;;;;;;5024582;28;20041;-66
2021/05/27 12:35:32;;;;;;;2.83;1.10;;;16.40;99.90;;;;;;5033254;28;20033;-67
2021/05/27 12:38:00;;;;;;;2.55;1.00;;;16.60;98.90;;;;;;5015853;28;20025;-72
2021/05/27 12:40:36;;;;;;;2.00;0.93;;;16.40;97.90;;;;;;5033444;28;20029;-68
2021/05/27 12:43:28;;;;;;;1.83;0.88;;;16.50;97.40;;;;;;5031930;28;20132;-69
2021/05/27 12:45:55;;;;;;;2.40;1.10;;;16.40;98.50;;;;;;5033176;28;20032;-68
2021/05/27 12:48:32;;;;;;;4.28;1.10;;;16.30;98.50;;;;;;5032961;28;20087;-67
2021/05/27 12:51:04;;;;;;;3.03;1.55;;;16.10;99.90;;;;;;5031663;28;20046;-68
2021/05/27 12:53:38;;;;;;;3.97;1.40;;;15.30;99.90;;;;;;5032820;28;20033;-67
2021/05/27 12:56:22;;;;;;;4.70;2.00;;;14.50;99.90;;;;;;5032903;28;20505;-67
2021/05/27 12:58:49;;;;;;;3.65;1.83;;;14.00;99.90;;;;;;5032899;28;20041;-67
2021/05/27 13:01:28;;;;;;;6.40;2.40;;;13.70;99.90;;;;;;5032832;28;20045;-67
2021/05/27 13:03:53;;;;;;;4.93;2.22;;;13.60;99.90;;;;;;4992080;28;20069;-67
2021/05/27 13:06:28;;;;;;;7.78;2.72;;;13.60;99.90;;;;;;4993057;28;20140;-67
2021/05/27 13:09:09;;;;;;;5.10;2.70;;;13.70;99.90;;;;;;4992177;28;20038;-67
2021/05/27 13:11:36;;;;;;;4.88;2.08;;;13.90;99.90;;;;;;4993115;28;20394;-67